Winters Aire Park Airport

CFY4 · 艾伯塔, 加拿大

罗盘
风向 的 风向 280° Winters Aire Park Airport 9/27
风向 到 风: 13 kt, 阵阵 18 kt, 4 beaufort

13 kt

2 kt
改变
0 ft 6.000 12.000 18.000 24.000 30.000
Cloud Cloud Cloud Cloud Cloud Cloud
BKN 23.000
METAR CYBW 071700Z AUTO 28013G18KT 9SM BKN230 04/M06 A2979 RMK SLP122

METAR Winters Aire Park Airport - CFY4

Winters Aire Park Airport是,加拿大中的小机场。 该机场有2条跑道: 9/27 和 16/34. 该领域的国际民航组织标志是CFY4.

这份报告是针对2023年2月7日 10:00, 当地时间在Calgary / Springbank Airport进行的。

机场观察

风向为280°,速度为13 kt。 已测得18 kt的阵风。

可见度为9 mi。

有碎云在23.000 ft的高度。 破损或更高的上限为23.000 ft。

温度为4 °C,阵风为-3 °C。 露点为-6 °C,相对湿度为48%。 海平面上的气压为29,79 inHg (QNH)。

白天

今天,太阳从08:01升起,在17:37降落。 这适用于Winters Aire Park Airport,世界夏令时可能有所不同。 当地时间与世界标准时间之间的时差为-7 小时。 当前,没有夏令时有效。

公司介绍

我们没有关于这个机场的公司信息。

体会

到Vliegles.nl去找飞行课程,跳伞和其他飞行体验。 浏览页面,了解Winters Aire Park Airport附近所有可用的活动。 你也可以使用搜索功能来寻找你所在地附近的特定飞行课程、跳伞或其他飞行体验。

跑道

Id 标题 侧风 逆风 侧风 %
9/27 090°-270° 2-3 kt 13-18 kt 17 %
16/34 160°-340° 11-16 kt 7-9 kt 87 %

逆风成分最大的方向会被突出显示,并用于横风计算。 这并不一定意味着这个方向在使用。

乌云

23.000 ft BKN 碎云

温度 & 天气

温度 4 °C
露点 -6 °C
相对湿度 48%
风寒 -3 °C
Kp-index 2 (0-9)

评论

SLP122海平面压力为29,89 inHg (29,89 inHg)

白天

日出
08:04
中午
12:51
日落
17:38 (6:35)

小工具

你想在你的网站上有一个关于Winters Aire Park Airport的当前航空天气(METAR)的小部件吗?

显示HTML代码

我们和第三方通过cookies跟踪您在我们网站上的互联网行为。如果你继续,我们认为你同意我们的饼干政策